Time;durP1;ratioP1;P1;durP2;ratioP2;P2;SDS_P1;SDS_P2;PMS_P1;PMS_P2;Temp;Humidity;BMP_temperature;BMP_pressure;BME280_temperature;BME280_humidity;BME280_pressure;Samples;Min_cycle;Max_cycle;Signal;HPM_P1;HPM_P2
2022/04/13 00:02:16;;;;;;;15.93;13.25;;;;;;;6.96;55.34;95134.09;5075397;28;20197;-70
2022/04/13 00:04:43;;;;;;;14.52;13.00;;;;;;;6.96;54.96;95132.16;5075252;28;20244;-70
2022/04/13 00:07:10;;;;;;;15.38;13.27;;;;;;;7.03;54.78;95142.63;5076465;28;20236;-70
2022/04/13 00:09:37;;;;;;;14.88;13.48;;;;;;;6.95;55.21;95138.78;5075099;28;20220;-71
2022/04/13 00:12:06;;;;;;;15.95;14.02;;;;;;;6.96;54.53;95136.84;5075084;28;20633;-70
2022/04/13 00:14:33;;;;;;;14.65;13.15;;;;;;;6.98;54.93;95134.56;5075920;28;20538;-70
2022/04/13 00:17:00;;;;;;;16.15;14.45;;;;;;;6.96;54.81;95125.88;5075397;28;20200;-70
2022/04/13 00:19:28;;;;;;;17.88;14.57;;;;;;;6.98;53.80;95131.84;5075192;28;20224;-70
2022/04/13 00:21:56;;;;;;;16.38;12.85;;;;;;;6.97;55.15;95127.47;5076123;28;20251;-70
2022/04/13 00:24:23;;;;;;;14.68;13.07;;;;;;;6.87;55.37;95125.91;5076224;28;20193;-70
2022/04/13 00:26:50;;;;;;;14.52;12.73;;;;;;;6.88;55.71;95130.25;5075862;28;20221;-71
2022/04/13 00:29:16;;;;;;;14.85;12.20;;;;;;;6.86;55.37;95128.97;5075997;28;20221;-71
2022/04/13 00:31:43;;;;;;;13.25;11.80;;;;;;;6.73;55.87;95130.78;5058284;28;20197;-71
2022/04/13 00:34:10;;;;;;;13.23;11.82;;;;;;;6.60;55.65;95129.84;5075660;28;20220;-71
2022/04/13 00:36:39;;;;;;;13.35;11.98;;;;;;;6.55;55.58;95137.44;5058375;28;20284;-71
2022/04/13 00:39:06;;;;;;;13.77;12.38;;;;;;;6.49;56.10;95129.38;5075733;28;20605;-71
2022/04/13 00:41:32;;;;;;;14.32;12.82;;;;;;;6.56;55.71;95131.63;5075525;28;20591;-71
2022/04/13 00:44:04;;;;;;;14.80;12.55;;;;;;;6.66;55.07;95130.47;5075442;28;20212;-71
2022/04/13 00:46:31;;;;;;;14.20;12.77;;;;;;;6.67;55.67;95127.41;5058189;28;20223;-71
2022/04/13 00:48:59;;;;;;;12.93;11.63;;;;;;;6.69;55.63;95132.56;5058152;28;20203;-71
2022/04/13 00:51:26;;;;;;;14.90;12.02;;;;;;;6.67;55.62;95127.41;5057945;28;20228;-71
2022/04/13 00:53:55;;;;;;;13.35;12.02;;;;;;;6.62;55.98;95135.00;5075188;28;20232;-71
2022/04/13 00:56:25;;;;;;;14.60;11.93;;;;;;;6.56;56.45;95133.56;5075473;28;20177;-71
2022/04/13 00:58:53;;;;;;;13.77;12.38;;;;;;;6.56;55.77;95136.31;5057388;28;20201;-71
2022/04/13 01:01:20;;;;;;;12.63;10.85;;;;;;;6.53;55.13;95142.44;5074716;28;20224;-70
2022/04/13 01:03:47;;;;;;;12.63;10.93;;;;;;;6.54;55.55;95144.06;5074291;28;20224;-70
2022/04/13 01:06:15;;;;;;;11.70;10.50;;;;;;;6.54;55.07;95142.13;5057865;28;20677;-70
2022/04/13 01:08:42;;;;;;;11.63;10.50;;;;;;;6.48;56.08;95146.16;5075397;28;20203;-70
2022/04/13 01:11:11;;;;;;;11.50;10.35;;;;;;;6.46;56.13;95142.91;5075132;28;20212;-70
2022/04/13 01:13:39;;;;;;;13.25;11.70;;;;;;;6.36;56.29;95138.59;5075025;28;20513;-70
2022/04/13 01:16:06;;;;;;;11.20;10.10;;;;;;;6.32;56.36;95136.81;5075019;28;20189;-70
2022/04/13 01:18:33;;;;;;;11.40;10.20;;;;;;;6.36;55.63;95137.81;5074942;28;20208;-70
2022/04/13 01:21:00;;;;;;;11.77;10.48;;;;;;;6.37;56.70;95145.69;5075294;28;20220;-70
2022/04/13 01:23:29;;;;;;;12.30;11.00;;;;;;;6.25;56.65;95140.88;5057679;28;20204;-71
2022/04/13 01:25:57;;;;;;;10.18;9.10;;;;;;;6.18;56.27;95143.28;5075305;28;20201;-71
2022/04/13 01:28:24;;;;;;;10.60;9.50;;;;;;;6.01;56.12;95138.59;5074432;28;20295;-71
2022/04/13 01:30:51;;;;;;;10.85;9.10;;;;;;;5.94;56.69;95138.28;5074220;28;20197;-71
2022/04/13 01:33:18;;;;;;;9.55;8.57;;;;;;;5.85;56.63;95144.88;5073962;28;20300;-71
2022/04/13 01:35:45;;;;;;;9.65;8.73;;;;;;;5.74;56.66;95150.66;5074723;28;20562;-71
2022/04/13 01:38:12;;;;;;;10.48;8.55;;;;;;;5.67;57.23;95144.84;5074791;28;20185;-71
2022/04/13 01:40:42;;;;;;;11.13;9.07;;;;;;;5.63;57.20;95146.59;5074208;28;20205;-71
2022/04/13 01:43:09;;;;;;;10.70;9.15;;;;;;;5.66;57.86;95142.41;5074153;28;20203;-71
2022/04/13 01:45:36;;;;;;;9.90;8.90;;;;;;;5.66;57.75;95142.41;5074665;28;20189;-71
2022/04/13 01:48:04;;;;;;;10.68;9.35;;;;;;;5.59;57.43;95139.34;5074998;28;20193;-71
2022/04/13 01:50:31;;;;;;;10.73;9.43;;;;;;;5.61;57.55;95135.16;5074782;28;20181;-71
2022/04/13 01:52:57;;;;;;;10.48;9.35;;;;;;;5.64;57.57;95133.72;5074214;28;20299;-70
2022/04/13 01:55:24;;;;;;;10.25;8.80;;;;;;;5.57;57.43;95139.66;5075119;28;20224;-70
2022/04/13 01:57:53;;;;;;;11.23;9.50;;;;;;;5.48;57.55;95134.19;5074027;28;20240;-70
2022/04/13 02:00:19;;;;;;;9.70;8.70;;;;;;;5.42;58.02;95134.66;5073946;28;20271;-70
2022/04/13 02:02:47;;;;;;;11.13;9.45;;;;;;;5.41;57.99;95131.13;5074487;28;20185;-70
2022/04/13 02:05:15;;;;;;;10.88;9.00;;;;;;;5.39;58.08;95141.56;5074897;28;20241;-70
2022/04/13 02:07:42;;;;;;;12.80;9.38;;;;;;;5.49;58.28;95141.28;5073708;28;20221;-70
2022/04/13 02:10:10;;;;;;;11.20;9.40;;;;;;;5.54;57.82;95134.84;5078283;28;20185;-70
2022/04/13 02:12:37;;;;;;;10.63;9.63;;;;;;;5.57;58.25;95125.19;5078541;28;20254;-70
2022/04/13 02:15:06;;;;;;;10.60;9.50;;;;;;;5.52;57.53;95128.88;5060916;28;20597;-70
2022/04/13 02:17:33;;;;;;;10.00;8.95;;;;;;;5.59;58.24;95131.13;5077245;28;20193;-70
2022/04/13 02:20:00;;;;;;;9.98;8.55;;;;;;;5.63;58.11;95129.38;5078496;28;20223;-71
2022/04/13 02:22:27;;;;;;;10.95;8.73;;;;;;;5.59;58.31;95134.66;5078152;28;20245;-71
2022/04/13 02:24:54;;;;;;;12.20;9.02;;;;;;;5.46;58.41;95139.16;5077584;28;20239;-71
2022/04/13 02:27:21;;;;;;;15.52;9.95;;;;;;;5.34;58.44;95133.50;5076838;28;20224;-72
2022/04/13 02:29:50;;;;;;;11.90;9.07;;;;;;;5.27;57.86;95136.72;5078345;28;20186;-71
2022/04/13 02:32:19;;;;;;;12.80;9.55;;;;;;;5.27;58.44;95123.03;5077182;28;20215;-71
2022/04/13 02:34:48;;;;;;;12.18;9.30;;;;;;;5.32;58.84;95125.63;5077836;28;20221;-70
2022/04/13 02:37:15;;;;;;;12.35;9.23;;;;;;;5.24;59.00;95134.59;5077512;28;20201;-70
2022/04/13 02:39:44;;;;;;;15.68;9.15;;;;;;;5.12;58.62;95130.84;5077622;28;20195;-70
2022/04/13 02:42:12;;;;;;;11.52;8.90;;;;;;;4.99;59.23;95130.66;5077029;28;20193;-70
2022/04/13 02:44:39;;;;;;;10.68;8.82;;;;;;;4.98;58.82;95131.00;5077938;28;20185;-70
2022/04/13 02:47:06;;;;;;;10.77;8.25;;;;;;;5.07;59.27;95126.34;5077604;28;20248;-70
2022/04/13 02:49:34;;;;;;;12.15;8.63;;;;;;;5.15;58.50;95127.50;5080628;28;20603;-71
2022/04/13 02:52:01;;;;;;;11.43;8.65;;;;;;;5.21;59.07;95123.50;5098406;28;20189;-72
2022/04/13 02:54:28;;;;;;;13.15;8.70;;;;;;;5.23;58.71;95127.53;5080643;28;20204;-71
2022/04/13 02:56:55;;;;;;;10.65;8.43;;;;;;;5.23;57.77;95118.53;5097945;28;20181;-70
2022/04/13 02:59:23;;;;;;;9.95;7.88;;;;;;;5.24;58.30;95131.88;5098142;28;20181;-71
2022/04/13 03:01:50;;;;;;;10.68;7.60;;;;;;;5.25;58.23;95128.00;5098452;28;20279;-68
2022/04/13 03:04:17;;;;;;;12.38;8.38;;;;;;;5.25;58.61;95132.66;5097569;28;20275;-71
2022/04/13 03:06:45;;;;;;;10.27;8.15;;;;;;;5.21;58.51;95135.22;5079842;28;20216;-71
2022/04/13 03:09:12;;;;;;;14.43;9.23;;;;;;;5.17;58.51;95137.00;5080441;28;20192;-71
2022/04/13 03:11:40;;;;;;;15.00;8.93;;;;;;;5.07;59.41;95140.81;5079849;28;20612;-71
2022/04/13 03:14:07;;;;;;;10.25;8.02;;;;;;;5.05;59.31;95145.81;5097519;28;20189;-71
2022/04/13 03:16:34;;;;;;;14.30;7.45;;;;;;;4.96;59.26;95142.22;5097754;28;20191;-70
2022/04/13 03:19:02;;;;;;;11.40;7.78;;;;;;;4.95;59.61;95137.88;5097909;28;20227;-68
2022/04/13 03:21:28;;;;;;;12.63;7.75;;;;;;;4.98;59.02;95142.72;5096563;28;20192;-69
2022/04/13 03:23:57;;;;;;;11.30;7.88;;;;;;;4.99;59.37;95136.13;5080320;28;20227;-69
2022/04/13 03:26:24;;;;;;;11.15;7.22;;;;;;;5.06;59.07;95138.41;5079965;28;20375;-69
2022/04/13 03:28:51;;;;;;;12.48;7.78;;;;;;;5.09;58.93;95139.72;5079554;28;20201;-70
2022/04/13 03:31:18;;;;;;;11.50;8.55;;;;;;;5.07;59.28;95142.75;5097535;28;20196;-69
2022/04/13 03:33:45;;;;;;;11.85;8.93;;;;;;;4.96;58.42;95150.41;5079885;28;20218;-69
2022/04/13 03:36:11;;;;;;;15.70;9.27;;;;;;;4.79;58.48;95140.22;5079537;28;20200;-69
2022/04/13 03:38:38;;;;;;;12.13;8.65;;;;;;;4.78;58.92;95140.53;5079674;28;20200;-69
2022/04/13 03:41:07;;;;;;;12.77;8.82;;;;;;;4.81;59.94;95142.63;5079888;28;20295;-69
2022/04/13 03:43:33;;;;;;;13.43;9.45;;;;;;;4.86;59.66;95150.69;5097156;28;20510;-69
2022/04/13 03:46:00;;;;;;;18.23;10.40;;;;;;;4.83;59.19;95148.59;5079531;28;20197;-70
2022/04/13 03:48:28;;;;;;;15.75;10.20;;;;;;;4.78;59.12;95146.00;5079394;28;20212;-69
2022/04/13 03:50:57;;;;;;;14.68;9.90;;;;;;;4.69;58.68;95145.16;5079292;28;20218;-68
2022/04/13 03:53:24;;;;;;;15.57;9.38;;;;;;;4.61;58.95;95149.44;5079838;28;20199;-70
2022/04/13 03:55:51;;;;;;;15.25;9.27;;;;;;;4.65;59.06;95144.97;5096953;28;20180;-70
2022/04/13 03:58:19;;;;;;;13.43;9.80;;;;;;;4.73;58.48;95144.22;5079482;28;20197;-69
2022/04/13 04:00:46;;;;;;;10.50;8.82;;;;;;;4.73;58.56;95151.59;5079205;28;20200;-71
2022/04/13 04:03:14;;;;;;;16.10;10.15;;;;;;;4.79;58.98;95153.06;5079132;28;20242;-70
2022/04/13 04:05:41;;;;;;;17.38;12.35;;;;;;;4.79;58.34;95153.06;5096995;28;20180;-69
2022/04/13 04:08:08;;;;;;;19.70;12.63;;;;;;;4.75;58.77;95152.09;5096380;28;20215;-69
2022/04/13 04:10:35;;;;;;;14.73;10.57;;;;;;;4.73;59.00;95159.81;5079316;28;20294;-69
2022/04/13 04:13:02;;;;;;;18.65;11.10;;;;;;;4.71;58.73;95160.09;5078590;28;20254;-70
2022/04/13 04:15:30;;;;;;;18.95;12.57;;;;;;;4.69;58.76;95169.75;5078752;28;20228;-69
2022/04/13 04:17:57;;;;;;;17.10;12.88;;;;;;;4.66;58.31;95181.31;5079185;28;20288;-70
2022/04/13 04:20:25;;;;;;;17.80;13.40;;;;;;;4.71;59.36;95187.41;5096612;28;20279;-70
2022/04/13 04:22:52;;;;;;;17.67;13.68;;;;;;;4.78;58.95;95178.78;5096433;28;20181;-71
2022/04/13 04:25:19;;;;;;;19.17;14.32;;;;;;;4.87;59.46;95184.31;5078569;28;20231;-71
2022/04/13 04:27:46;;;;;;;21.95;14.63;;;;;;;4.93;58.27;95181.09;5078532;28;20248;-70
2022/04/13 04:30:13;;;;;;;20.58;15.70;;;;;;;4.88;58.78;95192.19;5078622;28;20184;-69
2022/04/13 04:32:42;;;;;;;17.63;13.57;;;;;;;4.88;58.25;95196.84;5077955;28;20207;-70
2022/04/13 04:35:10;;;;;;;17.73;14.10;;;;;;;4.94;58.19;95198.31;5096421;28;20212;-70
2022/04/13 04:37:38;;;;;;;14.75;13.13;;;;;;;5.00;57.92;95214.28;5096105;28;20610;-69
2022/04/13 04:40:08;;;;;;;15.15;12.95;;;;;;;5.05;58.57;95213.34;5078252;28;20265;-69
2022/04/13 04:42:45;;;;;;;21.35;13.40;;;;;;;5.12;58.45;95216.44;5078048;28;20257;-69
2022/04/13 04:45:13;;;;;;;18.30;13.70;;;;;;;5.16;58.08;95222.09;5078447;28;20282;-72
2022/04/13 04:47:42;;;;;;;19.08;13.57;;;;;;;5.13;57.89;95239.13;5078012;28;20216;-70
2022/04/13 04:50:11;;;;;;;18.77;14.25;;;;;;;5.16;57.94;95236.56;5095711;28;20635;-70
2022/04/13 04:52:42;;;;;;;15.02;13.48;;;;;;;5.17;57.42;95231.91;5096128;28;20184;-70
2022/04/13 04:55:10;;;;;;;22.27;15.85;;;;;;;5.12;57.66;95237.47;5078078;28;20204;-70
2022/04/13 04:57:37;;;;;;;22.55;16.20;;;;;;;5.15;57.29;95243.13;5078430;28;20247;-70
2022/04/13 05:00:05;;;;;;;19.40;14.02;;;;;;;5.20;57.64;95244.94;5095789;28;20634;-70
2022/04/13 05:02:33;;;;;;;19.38;13.02;;;;;;;5.26;57.85;95244.47;5078123;28;20195;-70
2022/04/13 05:05:02;;;;;;;17.38;13.27;;;;;;;5.32;57.16;95242.41;5096099;28;20246;-70
2022/04/13 05:07:29;;;;;;;15.77;13.18;;;;;;;5.36;57.39;95248.88;5078536;28;20220;-70
2022/04/13 05:09:56;;;;;;;14.60;12.00;;;;;;;5.40;57.34;95255.31;5095771;28;20184;-70
2022/04/13 05:12:23;;;;;;;14.52;11.18;;;;;;;5.44;56.36;95247.28;5095294;28;20223;-70
2022/04/13 05:14:50;;;;;;;11.75;9.45;;;;;;;5.51;56.43;95250.38;5095347;28;20216;-70
2022/04/13 05:17:18;;;;;;;12.40;9.90;;;;;;;5.62;56.22;95256.38;5078108;28;20196;-71
2022/04/13 05:19:45;;;;;;;10.10;9.10;;;;;;;5.63;55.15;95260.72;5077484;28;20227;-71
2022/04/13 05:22:16;;;;;;;11.52;8.60;;;;;;;5.65;55.45;95251.06;5061554;28;20202;-71
2022/04/13 05:24:43;;;;;;;10.35;8.70;;;;;;;5.75;55.66;95258.19;5095472;28;20208;-70
2022/04/13 05:27:11;;;;;;;9.68;8.70;;;;;;;5.80;55.22;95253.34;5095648;28;20232;-71
2022/04/13 05:29:38;;;;;;;10.93;8.45;;;;;;;5.88;55.06;95259.19;5077674;28;20200;-71
2022/04/13 05:32:06;;;;;;;10.18;8.27;;;;;;;5.97;55.21;95252.63;5095780;28;20192;-70
2022/04/13 05:34:33;;;;;;;8.07;7.28;;;;;;;6.05;55.07;95261.19;5095558;28;20237;-70
2022/04/13 05:37:00;;;;;;;9.18;6.97;;;;;;;6.11;54.46;95260.72;5095434;28;20234;-70
2022/04/13 05:39:29;;;;;;;8.57;6.85;;;;;;;6.23;55.29;95254.59;5095523;28;20216;-69
2022/04/13 05:41:56;;;;;;;8.02;7.18;;;;;;;6.42;55.37;95257.03;5095296;28;20201;-69
2022/04/13 05:44:23;;;;;;;10.02;7.22;;;;;;;6.50;54.85;95254.31;5097735;28;20199;-69
2022/04/13 05:46:50;;;;;;;8.55;7.55;;;;;;;6.61;55.51;95260.28;5099083;28;20184;-70
2022/04/13 05:49:17;;;;;;;8.70;6.95;;;;;;;6.67;54.42;95252.69;5082157;28;20211;-70
2022/04/13 05:51:44;;;;;;;11.18;7.18;;;;;;;6.73;54.31;95254.13;5081528;28;20200;-70
2022/04/13 05:54:12;;;;;;;8.85;7.75;;;;;;;6.74;54.21;95253.81;5099189;28;20214;-70
2022/04/13 05:56:40;;;;;;;7.68;6.97;;;;;;;6.82;53.73;95243.94;5081941;28;20234;-70
2022/04/13 05:59:09;;;;;;;8.77;7.97;;;;;;;6.85;54.29;95248.78;5081264;28;20196;-69
2022/04/13 06:01:36;;;;;;;9.25;8.25;;;;;;;6.86;54.81;95250.44;5099795;28;20667;-70
2022/04/13 06:04:03;;;;;;;10.05;7.80;;;;;;;6.88;54.27;95248.16;5078046;28;20229;-70
2022/04/13 06:06:30;;;;;;;9.13;7.75;;;;;;;6.96;53.84;95254.75;5071013;28;20181;-70
2022/04/13 06:08:57;;;;;;;14.18;7.82;;;;;;;6.97;53.98;95256.34;5061399;28;20658;-69
2022/04/13 06:11:25;;;;;;;8.05;7.25;;;;;;;7.02;54.20;95253.44;5061197;28;20231;-69
2022/04/13 06:13:53;;;;;;;9.13;7.82;;;;;;;7.12;54.58;95250.38;5078721;28;20189;-69
2022/04/13 06:16:20;;;;;;;8.65;7.72;;;;;;;7.18;53.78;95253.72;5078699;28;20220;-70
2022/04/13 06:18:47;;;;;;;9.43;7.85;;;;;;;7.25;53.41;95265.00;5061294;28;20495;-70
2022/04/13 06:21:14;;;;;;;10.02;8.48;;;;;;;7.35;54.04;95261.91;5061303;28;20254;-70
2022/04/13 06:23:41;;;;;;;8.27;7.47;;;;;;;7.41;52.34;95262.56;5078387;28;20192;-70
2022/04/13 06:26:08;;;;;;;12.05;9.00;;;;;;;7.44;52.52;95259.13;5078290;28;20220;-70
2022/04/13 06:28:35;;;;;;;13.05;10.23;;;;;;;7.48;52.70;95254.63;5078112;28;20308;-70
2022/04/13 06:31:04;;;;;;;9.70;8.23;;;;;;;7.51;52.71;95259.44;5078151;28;20201;-70
2022/04/13 06:33:31;;;;;;;10.43;8.27;;;;;;;7.56;52.44;95259.28;5078394;28;20215;-70
2022/04/13 06:35:58;;;;;;;9.57;8.60;;;;;;;7.57;52.37;95254.59;5078392;28;20200;-70
2022/04/13 06:38:27;;;;;;;8.57;7.75;;;;;;;7.65;51.67;95260.03;5078147;28;20193;-70
2022/04/13 06:40:55;;;;;;;8.75;7.85;;;;;;;7.71;51.73;95257.91;5078507;28;20203;-70
2022/04/13 06:43:22;;;;;;;9.98;7.70;;;;;;;7.77;51.97;95255.78;5078126;28;20643;-70
2022/04/13 06:45:49;;;;;;;9.50;8.27;;;;;;;7.77;51.62;95253.84;5060597;28;20233;-70
2022/04/13 06:48:17;;;;;;;10.00;7.45;;;;;;;7.80;50.72;95266.09;5060612;28;20248;-70
2022/04/13 06:50:44;;;;;;;7.93;7.13;;;;;;;7.77;50.85;95264.00;5078233;28;20213;-70
2022/04/13 06:53:13;;;;;;;8.00;7.10;;;;;;;7.79;50.65;95261.75;5077735;28;20597;-69
2022/04/13 06:55:40;;;;;;;8.10;7.30;;;;;;;7.81;51.24;95260.28;5077863;28;20185;-70
2022/04/13 06:58:07;;;;;;;8.57;7.78;;;;;;;7.87;51.77;95261.69;5060188;28;20201;-70
2022/04/13 07:00:34;;;;;;;10.77;7.40;;;;;;;7.97;50.42;95255.03;5077822;28;20302;-71
2022/04/13 07:03:01;;;;;;;8.95;8.05;;;;;;;8.02;50.79;95257.56;5077751;28;20201;-70
2022/04/13 07:05:30;;;;;;;11.18;8.30;;;;;;;8.09;50.40;95255.13;5040370;28;20241;-70
2022/04/13 07:07:57;;;;;;;12.38;8.25;;;;;;;8.16;50.39;95249.09;5040789;28;20217;-69
2022/04/13 07:10:26;;;;;;;9.52;8.52;;;;;;;8.19;50.66;95256.69;5057809;28;20190;-69
2022/04/13 07:12:53;;;;;;;9.57;8.65;;;;;;;8.25;50.53;95254.56;5040001;28;20200;-70
2022/04/13 07:15:21;;;;;;;9.07;8.13;;;;;;;8.29;49.96;95258.25;5057237;28;20190;-70
2022/04/13 07:17:48;;;;;;;9.27;8.25;;;;;;;8.35;50.65;95263.22;5057768;28;20288;-69
2022/04/13 07:20:16;;;;;;;12.32;9.82;;;;;;;8.42;49.93;95259.94;5057149;28;20515;-70
2022/04/13 07:22:45;;;;;;;11.18;9.43;;;;;;;8.51;50.16;95268.13;5039638;28;20221;-69
2022/04/13 07:25:12;;;;;;;11.93;8.88;;;;;;;8.55;49.62;95269.06;5040219;28;20198;-70
2022/04/13 07:27:39;;;;;;;11.75;9.07;;;;;;;8.61;50.64;95263.06;5039858;28;20221;-70
2022/04/13 07:30:08;;;;;;;12.48;9.70;;;;;;;8.75;51.20;95267.44;5057629;28;20193;-70
2022/04/13 07:32:34;;;;;;;11.70;9.45;;;;;;;8.86;50.50;95271.41;5057025;28;20259;-70
2022/04/13 07:35:02;;;;;;;10.38;9.25;;;;;;;8.97;50.68;95269.03;5056897;28;20566;-70
2022/04/13 07:37:29;;;;;;;11.50;8.93;;;;;;;9.08;49.21;95260.06;5056864;28;20224;-70
2022/04/13 07:39:58;;;;;;;10.80;8.88;;;;;;;9.11;48.78;95261.31;5057327;28;20200;-70
2022/04/13 07:42:26;;;;;;;9.43;8.52;;;;;;;9.10;48.62;95267.97;5056892;28;20185;-70
2022/04/13 07:44:54;;;;;;;10.75;8.65;;;;;;;9.15;48.11;95265.81;5056751;28;20178;-70
2022/04/13 07:47:21;;;;;;;10.27;8.18;;;;;;;9.21;48.56;95262.84;5040146;28;20204;-71
2022/04/13 07:49:48;;;;;;;10.05;9.00;;;;;;;9.29;48.61;95262.72;5056866;28;20221;-71
2022/04/13 07:52:16;;;;;;;11.88;8.48;;;;;;;9.42;48.55;95262.78;5056222;28;20278;-71
2022/04/13 07:54:44;;;;;;;10.35;8.68;;;;;;;9.53;49.42;95270.25;5056113;28;20240;-70
2022/04/13 07:57:13;;;;;;;11.43;8.30;;;;;;;9.68;49.22;95273.50;5057149;28;20190;-70
2022/04/13 07:59:41;;;;;;;10.80;8.73;;;;;;;9.77;47.96;95258.47;5039323;28;20229;-70
2022/04/13 08:02:08;;;;;;;9.35;8.45;;;;;;;9.91;46.42;95258.13;5056724;28;20210;-70
2022/04/13 08:04:35;;;;;;;10.65;8.82;;;;;;;10.07;47.15;95258.25;5068110;28;20232;-70
2022/04/13 08:07:02;;;;;;;11.18;8.57;;;;;;;10.16;47.29;95255.38;5076389;28;20197;-71
2022/04/13 08:09:29;;;;;;;9.77;8.45;;;;;;;10.24;46.26;95258.03;5076552;28;20280;-70
2022/04/13 08:11:56;;;;;;;9.75;8.45;;;;;;;10.30;45.02;95255.84;5075761;28;20239;-70
2022/04/13 08:14:25;;;;;;;10.18;8.32;;;;;;;10.39;45.59;95258.50;5075798;28;20633;-70
2022/04/13 08:16:52;;;;;;;9.15;8.25;;;;;;;10.44;44.91;95250.78;5075159;28;20201;-70
2022/04/13 08:19:19;;;;;;;10.70;8.55;;;;;;;10.53;44.24;95259.72;5076398;28;20256;-70
2022/04/13 08:21:46;;;;;;;10.38;7.72;;;;;;;10.66;43.55;95251.41;5076403;28;20220;-70
2022/04/13 08:24:17;;;;;;;7.97;7.13;;;;;;;10.72;43.45;95255.56;5076211;28;20224;-70
2022/04/13 08:26:44;;;;;;;8.15;6.95;;;;;;;10.75;42.09;95261.19;5076204;28;20181;-70
2022/04/13 08:29:11;;;;;;;7.75;6.95;;;;;;;10.74;41.95;95261.50;5076416;28;20533;-70
2022/04/13 08:31:42;;;;;;;11.02;7.45;;;;;;;10.77;42.93;95249.78;5076256;28;20251;-70
2022/04/13 08:34:09;;;;;;;7.80;7.00;;;;;;;10.89;42.74;95258.00;5075227;28;20207;-70
2022/04/13 08:36:36;;;;;;;8.98;8.07;;;;;;;11.02;42.64;95250.50;5075300;28;20221;-70
2022/04/13 08:39:04;;;;;;;9.65;7.80;;;;;;;11.25;43.66;95247.97;5075220;28;20544;-69
2022/04/13 08:41:35;;;;;;;8.23;7.43;;;;;;;11.38;41.63;95243.19;5078880;28;20245;-69
2022/04/13 08:44:08;;;;;;;7.95;7.03;;;;;;;11.50;41.81;95249.44;5078197;28;20246;-70
2022/04/13 08:46:40;;;;;;;8.27;7.53;;;;;;;11.67;45.34;95244.75;5078145;28;20196;-70
2022/04/13 08:49:10;;;;;;;8.25;5.40;;;;;;;11.84;41.20;95238.91;5078374;28;20216;-70
2022/04/13 08:51:38;;;;;;;8.05;5.30;;;;;;;11.90;38.58;95242.19;5096184;28;20212;-70
2022/04/13 08:54:15;;;;;;;5.35;4.85;;;;;;;12.00;36.61;95236.13;5096428;28;20219;-70
2022/04/13 08:56:44;;;;;;;5.97;4.47;;;;;;;12.04;38.72;95237.81;5077818;28;20200;-70
2022/04/13 08:59:16;;;;;;;7.15;5.60;;;;;;;12.16;39.53;95236.91;5078110;28;20219;-70
2022/04/13 09:01:52;;;;;;;7.03;5.40;;;;;;;12.15;37.55;95237.25;5078628;28;20193;-69
2022/04/13 09:04:19;;;;;;;6.18;5.45;;;;;;;12.16;37.59;95233.34;5077854;28;20568;-71
2022/04/13 09:06:47;;;;;;;4.80;4.30;;;;;;;12.26;36.02;95236.34;5077900;28;20182;-70
2022/04/13 09:09:16;;;;;;;4.85;4.40;;;;;;;12.32;33.00;95227.78;5078508;28;20224;-70
2022/04/13 09:11:44;;;;;;;4.55;4.15;;;;;;;12.28;33.51;95220.22;5078510;28;20196;-70
2022/04/13 09:14:12;;;;;;;6.10;4.00;;;;;;;12.25;32.59;95226.47;5078154;28;20227;-70
2022/04/13 09:16:39;;;;;;;4.72;3.60;;;;;;;12.39;31.88;95219.66;5077964;28;20208;-70
2022/04/13 09:19:09;;;;;;;3.13;2.83;;;;;;;12.47;29.83;95218.66;5077080;28;20200;-70
2022/04/13 09:21:36;;;;;;;3.97;2.95;;;;;;;12.65;31.90;95224.56;5077938;28;20219;-70
2022/04/13 09:24:04;;;;;;;4.63;3.80;;;;;;;12.80;31.58;95218.16;5095353;28;20220;-69
2022/04/13 09:26:31;;;;;;;4.20;3.53;;;;;;;12.96;31.56;95218.91;5095186;28;20196;-70
2022/04/13 09:28:58;;;;;;;6.10;4.28;;;;;;;13.06;31.32;95213.94;5077773;28;20251;-70
2022/04/13 09:31:25;;;;;;;4.05;3.53;;;;;;;13.18;31.19;95214.59;5095525;28;20207;-69
2022/04/13 09:33:53;;;;;;;5.82;4.13;;;;;;;13.35;31.35;95220.88;5077573;28;20231;-70
2022/04/13 09:36:21;;;;;;;3.78;3.47;;;;;;;13.33;32.39;95212.94;5095331;28;20206;-70
2022/04/13 09:38:49;;;;;;;3.63;3.30;;;;;;;13.44;32.34;95213.13;5077560;28;20620;-70
2022/04/13 09:41:16;;;;;;;4.43;3.50;;;;;;;13.61;32.33;95207.09;5095819;28;20200;-70
2022/04/13 09:43:54;;;;;;;6.65;4.32;;;;;;;13.78;32.25;95208.59;5095315;28;20600;-70
2022/04/13 09:46:27;;;;;;;4.15;3.72;;;;;;;13.86;33.35;95198.41;5077355;28;20207;-70
2022/04/13 09:49:08;;;;;;;3.88;3.50;;;;;;;14.02;33.93;95201.06;5077857;28;20208;-70
2022/04/13 09:51:41;;;;;;;3.58;3.28;;;;;;;14.01;30.78;95196.66;5095461;28;20212;-70
2022/04/13 09:54:09;;;;;;;3.92;3.60;;;;;;;14.05;30.51;95189.19;5095218;28;20224;-72
2022/04/13 09:56:38;;;;;;;3.92;3.53;;;;;;;14.11;31.08;95182.19;5077534;28;20207;-70
2022/04/13 09:59:06;;;;;;;4.00;3.60;;;;;;;14.24;32.28;95186.34;5077546;28;20199;-71
2022/04/13 10:01:34;;;;;;;3.83;3.30;;;;;;;14.42;30.92;95178.28;5077376;28;20204;-70
2022/04/13 10:04:03;;;;;;;4.28;3.92;;;;;;;14.63;31.43;95175.84;5073966;28;20596;-70
2022/04/13 10:06:31;;;;;;;4.15;3.55;;;;;;;14.80;30.23;95179.22;5074577;28;20264;-70
2022/04/13 10:09:08;;;;;;;4.82;3.83;;;;;;;14.84;30.93;95183.63;5074903;28;20224;-71
2022/04/13 10:11:35;;;;;;;4.60;3.30;;;;;;;14.91;29.85;95178.16;5073882;28;20196;-71
2022/04/13 10:14:06;;;;;;;4.05;3.30;;;;;;;14.80;28.31;95180.00;5074074;28;20225;-70
2022/04/13 10:16:34;;;;;;;3.50;3.20;;;;;;;14.70;29.68;95175.09;5074337;28;20213;-70
2022/04/13 10:19:03;;;;;;;7.07;3.83;;;;;;;14.77;31.62;95174.41;5074543;28;20208;-70
2022/04/13 10:21:43;;;;;;;3.90;3.25;;;;;;;14.93;32.19;95175.81;5074350;28;20194;-69
2022/04/13 10:24:27;;;;;;;4.05;3.60;;;;;;;15.13;31.42;95170.88;5074774;28;20200;-70
2022/04/13 10:27:05;;;;;;;3.97;3.22;;;;;;;15.21;31.51;95168.16;5074711;28;20247;-70
2022/04/13 10:29:35;;;;;;;4.38;3.30;;;;;;;15.26;30.33;95160.31;5075481;28;20270;-70
2022/04/13 10:32:06;;;;;;;3.70;3.28;;;;;;;15.45;31.62;95155.72;5078049;28;20680;-71
2022/04/13 10:34:35;;;;;;;3.80;3.25;;;;;;;15.57;31.73;95161.00;5077489;28;20197;-70
2022/04/13 10:37:04;;;;;;;5.20;3.42;;;;;;;15.61;32.79;95156.25;5078487;28;20205;-70
2022/04/13 10:39:32;;;;;;;3.28;2.90;;;;;;;15.73;29.45;95150.47;5078342;28;20628;-70
2022/04/13 10:42:03;;;;;;;4.38;3.00;;;;;;;15.90;29.97;95160.13;5077866;28;20212;-70
2022/04/13 10:44:34;;;;;;;4.22;2.85;;;;;;;16.14;32.25;95153.16;5077307;28;20593;-70
2022/04/13 10:47:07;;;;;;;5.40;3.72;;;;;;;16.29;31.69;95146.50;5077874;28;20198;-70
2022/04/13 10:49:48;;;;;;;3.20;2.90;;;;;;;16.34;30.11;95143.38;5077956;28;20259;-70
2022/04/13 10:52:24;;;;;;;3.50;3.20;;;;;;;16.49;29.60;95144.25;5077848;28;20512;-70
2022/04/13 10:54:59;;;;;;;3.65;3.20;;;;;;;16.64;28.41;95142.34;5078090;28;20199;-71
2022/04/13 10:57:27;;;;;;;3.45;2.95;;;;;;;16.71;27.33;95142.38;5078016;28;20185;-71
2022/04/13 10:59:57;;;;;;;3.33;3.03;;;;;;;16.78;27.86;95138.84;5078072;28;20193;-70
2022/04/13 11:02:30;;;;;;;3.33;3.03;;;;;;;16.93;28.49;95140.50;5078199;28;20193;-71
2022/04/13 11:04:57;;;;;;;3.00;2.67;;;;;;;17.04;27.84;95148.91;5092646;28;20286;-71
2022/04/13 11:07:25;;;;;;;3.88;2.97;;;;;;;17.00;28.21;95145.31;5080423;28;20208;-71
2022/04/13 11:10:00;;;;;;;3.78;3.00;;;;;;;17.17;27.43;95133.41;5080517;28;20270;-71
2022/04/13 11:12:29;;;;;;;3.30;2.80;;;;;;;17.23;28.02;95134.63;5098042;28;20206;-71
2022/04/13 11:15:01;;;;;;;4.43;3.05;;;;;;;17.26;26.72;95130.25;5080504;28;20221;-70
2022/04/13 11:17:30;;;;;;;3.45;2.90;;;;;;;16.74;28.31;95135.22;5098538;28;20196;-71
2022/04/13 11:20:20;;;;;;;2.50;2.30;;;;;;;17.03;29.89;95128.59;5098082;28;20183;-71
2022/04/13 11:22:49;;;;;;;3.42;3.13;;;;;;;17.21;26.63;95120.31;5080030;28;20277;-70
2022/04/13 11:25:54;;;;;;;2.80;2.60;;;;;;;17.42;26.22;95125.09;5097953;28;20188;-70
2022/04/13 11:28:31;;;;;;;2.90;2.58;;;;;;;17.42;26.51;95125.09;5074804;28;20203;-70
2022/04/13 11:31:06;;;;;;;3.05;2.58;;;;;;;17.51;27.08;95119.94;5097329;28;20694;-70
2022/04/13 11:33:51;;;;;;;2.80;2.60;;;;;;;17.49;26.64;95113.16;5097291;28;20235;-70
2022/04/13 11:36:21;;;;;;;5.15;2.50;;;;;;;17.59;28.78;95109.59;5097591;28;20181;-71
2022/04/13 11:38:50;;;;;;;3.45;2.90;;;;;;;17.74;26.30;95115.97;5097108;28;20181;-70